Time,TemperatureF,DewpointF,PressureIn,WindDirection,WindDirectionDegrees,WindSpeedMPH,WindSpeedGustMPH,Humidity,HourlyPrecipIn,Conditions,Clouds,dailyrainin,SoftwareType,DateUTC
2013-03-25 00:00:00,30.4,22.8,29.57,South,183,0.0,0.0,73,0.01,,,0.00,VWS V13.01,2013-03-25 04:00:00,
2013-03-25 00:05:00,30.6,23.0,29.57,South,183,0.0,0.0,73,0.01,,,0.00,VWS V13.01,2013-03-25 04:05:00,
2013-03-25 00:10:00,30.6,23.0,29.57,South,183,0.0,0.0,73,0.01,,,0.00,VWS V13.01,2013-03-25 04:10:00,
2013-03-25 00:15:00,30.6,23.0,29.57,South,183,0.0,0.0,73,0.01,,,0.00,VWS V13.01,2013-03-25 04:15:00,
2013-03-25 00:20:00,30.6,23.0,29.57,South,183,0.0,0.0,73,0.01,,OVC013,0.00,VWS V13.01,2013-03-25 04:20:00,
2013-03-25 00:25:00,30.6,23.0,29.57,South,183,0.0,0.0,73,0.01,,OVC013,0.00,VWS V13.01,2013-03-25 04:25:00,
2013-03-25 00:30:00,30.4,22.8,29.57,South,183,0.0,0.0,73,0.00,,OVC013,0.00,VWS V13.01,2013-03-25 04:30:00,
2013-03-25 00:35:00,30.4,23.1,29.57,South,183,0.0,0.0,74,0.00,,OVC013,0.00,VWS V13.01,2013-03-25 04:35:00,
2013-03-25 00:40:00,30.4,23.1,29.54,South,183,0.0,0.0,74,0.00,,,0.00,VWS V13.01,2013-03-25 04:40:00,
2013-03-25 00:45:00,30.4,23.1,29.54,South,183,0.0,0.0,74,0.01,,,0.01,VWS V13.01,2013-03-25 04:45:00,
2013-03-25 00:50:00,30.4,23.1,29.54,South,183,0.0,0.0,74,0.01,,,0.01,VWS V13.01,2013-03-25 04:50:00,
2013-03-25 00:55:00,30.4,23.1,29.54,South,183,0.0,0.0,74,0.01,,,0.01,VWS V13.01,2013-03-25 04:55:00,
2013-03-25 01:00:00,30.4,23.1,29.54,South,183,0.0,0.0,74,0.01,,,0.01,VWS V13.01,2013-03-25 05:00:00,
2013-03-25 01:05:00,30.4,23.1,29.54,South,183,0.0,0.0,74,0.01,,,0.01,VWS V13.01,2013-03-25 05:05:00,
2013-03-25 01:10:00,30.4,23.1,29.54,South,183,0.0,0.0,74,0.01,,,0.01,VWS V13.01,2013-03-25 05:10:00,
2013-03-25 01:15:00,30.4,23.1,29.54,South,183,0.0,0.0,74,0.01,,,0.01,VWS V13.01,2013-03-25 05:15:00,
2013-03-25 01:20:00,30.4,23.4,29.54,South,183,0.0,0.0,75,0.01,,,0.01,VWS V13.01,2013-03-25 05:20:00,
2013-03-25 01:25:00,30.4,23.4,29.57,South,183,0.0,0.0,75,0.01,,,0.01,VWS V13.01,2013-03-25 05:25:00,
2013-03-25 01:30:00,30.4,23.4,29.57,South,183,0.0,0.0,75,0.01,,,0.01,VWS V13.01,2013-03-25 05:30:00,
2013-03-25 01:35:00,30.4,23.4,29.57,South,183,0.0,0.0,75,0.01,,,0.01,VWS V13.01,2013-03-25 05:35:00,
2013-03-25 01:40:00,30.4,23.7,29.57,South,184,0.0,0.0,76,0.01,,,0.01,VWS V13.01,2013-03-25 05:40:00,
2013-03-25 01:45:00,30.4,23.7,29.57,South,184,0.0,0.0,76,0.02,,,0.02,VWS V13.01,2013-03-25 05:45:00,
2013-03-25 01:50:00,30.4,23.7,29.57,South,184,0.0,0.0,76,0.01,,,0.02,VWS V13.01,2013-03-25 05:50:00,
2013-03-25 01:55:00,30.4,23.7,29.57,South,184,0.0,0.0,76,0.01,,,0.02,VWS V13.01,2013-03-25 05:55:00,
2013-03-25 02:00:00,30.4,23.7,29.57,South,184,0.0,0.0,76,0.02,,,0.03,VWS V13.01,2013-03-25 06:00:00,
2013-03-25 02:05:00,30.4,23.7,29.57,South,184,0.0,0.0,76,0.02,,,0.03,VWS V13.01,2013-03-25 06:05:00,
2013-03-25 02:10:00,30.4,23.7,29.57,South,183,0.0,0.0,76,0.02,,,0.03,VWS V13.01,2013-03-25 06:10:00,
2013-03-25 02:15:00,30.4,23.7,29.57,South,184,0.0,0.0,76,0.03,,,0.04,VWS V13.01,2013-03-25 06:15:00,
2013-03-25 02:20:00,30.2,23.6,29.57,South,184,0.0,0.0,76,0.03,,,0.04,VWS V13.01,2013-03-25 06:20:00,
2013-03-25 02:25:00,30.4,23.7,29.57,South,183,0.0,0.0,76,0.03,,,0.04,VWS V13.01,2013-03-25 06:25:00,
2013-03-25 02:30:00,30.4,23.7,29.57,South,183,0.0,0.0,76,0.03,,,0.04,VWS V13.01,2013-03-25 06:30:00,
2013-03-25 02:35:00,30.4,23.7,29.57,South,184,0.0,0.0,76,0.04,,,0.06,VWS V13.01,2013-03-25 06:35:00,
2013-03-25 02:40:00,30.2,23.6,29.57,South,184,0.0,0.0,76,0.04,,,0.06,VWS V13.01,2013-03-25 06:40:00,
2013-03-25 02:45:00,30.2,23.6,29.57,South,183,0.0,0.0,76,0.04,,,0.07,VWS V13.01,2013-03-25 06:45:00,
2013-03-25 02:50:00,30.2,23.6,29.57,South,184,0.0,0.0,76,0.04,,,0.07,VWS V13.01,2013-03-25 06:50:00,
2013-03-25 02:55:00,30.2,23.6,29.57,South,184,0.0,0.0,76,0.04,,,0.07,VWS V13.01,2013-03-25 06:55:00,
2013-03-25 03:00:00,30.2,23.6,29.57,South,184,0.0,0.0,76,0.03,,,0.07,VWS V13.01,2013-03-25 07:00:00,
2013-03-25 03:05:00,30.2,23.6,29.57,South,183,0.0,0.0,76,0.04,,,0.08,VWS V13.01,2013-03-25 07:05:00,
2013-03-25 03:10:00,30.2,23.6,29.57,South,184,0.0,0.0,76,0.04,,,0.08,VWS V13.01,2013-03-25 07:10:00,
2013-03-25 03:15:00,30.2,23.6,29.57,South,183,0.0,0.0,76,0.04,,,0.08,VWS V13.01,2013-03-25 07:15:00,
2013-03-25 03:20:00,30.2,23.6,29.57,South,184,0.0,0.0,76,0.03,,,0.08,VWS V13.01,2013-03-25 07:20:00,
2013-03-25 03:25:00,30.2,23.6,29.54,South,184,0.0,0.0,76,0.03,,,0.08,VWS V13.01,2013-03-25 07:25:00,
2013-03-25 03:30:00,30.2,23.6,29.54,South,183,0.0,0.0,76,0.04,,,0.09,VWS V13.01,2013-03-25 07:30:00,
2013-03-25 03:35:00,30.2,23.6,29.54,South,184,0.0,0.0,76,0.03,,,0.09,VWS V13.01,2013-03-25 07:35:00,
2013-03-25 03:40:00,30.2,23.6,29.54,South,184,0.0,0.0,76,0.03,,,0.09,VWS V13.01,2013-03-25 07:40:00,
2013-03-25 03:45:00,30.2,23.6,29.54,South,184,0.0,0.0,76,0.02,,,0.09,VWS V13.01,2013-03-25 07:45:00,
2013-03-25 03:50:00,30.0,23.4,29.54,South,184,0.0,0.0,76,0.02,,,0.09,VWS V13.01,2013-03-25 07:50:00,
2013-03-25 03:55:00,30.0,23.4,29.54,South,184,0.0,0.0,76,0.02,,,0.09,VWS V13.01,2013-03-25 07:55:00,
2013-03-25 04:00:00,30.0,23.4,29.54,South,183,0.0,0.0,76,0.02,,,0.09,VWS V13.01,2013-03-25 08:00:00,
2013-03-25 04:05:00,30.0,23.7,29.54,South,184,0.0,0.0,77,0.01,,,0.09,VWS V13.01,2013-03-25 08:05:00,
2013-03-25 04:10:00,30.0,23.7,29.52,South,184,0.0,0.0,77,0.01,,,0.09,VWS V13.01,2013-03-25 08:10:00,
2013-03-25 04:15:00,30.0,23.7,29.52,South,184,0.0,0.0,77,0.01,,,0.09,VWS V13.01,2013-03-25 08:15:00,
2013-03-25 04:20:00,30.0,23.7,29.52,South,184,0.0,0.0,77,0.01,,,0.09,VWS V13.01,2013-03-25 08:20:00,
2013-03-25 04:25:00,30.0,23.7,29.52,South,184,0.0,0.0,77,0.01,,,0.09,VWS V13.01,2013-03-25 08:25:00,
2013-03-25 04:30:00,30.0,23.7,29.52,South,183,0.0,0.0,77,0.01,,,0.09,VWS V13.01,2013-03-25 08:30:00,
2013-03-25 04:35:00,30.0,23.7,29.52,South,184,0.0,0.0,77,0.00,,,0.09,VWS V13.01,2013-03-25 08:35:00,
2013-03-25 04:40:00,30.0,23.7,29.52,South,184,0.0,0.0,77,0.00,,,0.09,VWS V13.01,2013-03-25 08:40:00,
2013-03-25 04:45:00,30.0,23.7,29.52,South,184,0.0,0.0,77,0.01,,,0.10,VWS V13.01,2013-03-25 08:45:00,
2013-03-25 04:50:00,30.0,23.7,29.52,South,184,0.0,0.0,77,0.01,,,0.10,VWS V13.01,2013-03-25 08:50:00,
2013-03-25 04:55:00,30.0,23.7,29.52,South,184,0.0,0.0,77,0.01,,,0.10,VWS V13.01,2013-03-25 08:55:00,
2013-03-25 05:00:00,30.0,23.7,29.52,South,184,0.0,0.0,77,0.01,,,0.10,VWS V13.01,2013-03-25 09:00:00,
2013-03-25 05:05:00,30.0,23.7,29.52,South,183,0.0,0.0,77,0.01,,,0.10,VWS V13.01,2013-03-25 09:05:00,
2013-03-25 05:10:00,30.0,23.7,29.52,South,184,0.0,0.0,77,0.01,,,0.10,VWS V13.01,2013-03-25 09:10:00,
2013-03-25 05:15:00,30.0,23.7,29.52,South,184,0.0,0.0,77,0.01,,,0.10,VWS V13.01,2013-03-25 09:15:00,
2013-03-25 05:20:00,29.8,23.5,29.52,South,183,0.0,0.0,77,0.01,,,0.10,VWS V13.01,2013-03-25 09:20:00,
2013-03-25 05:25:00,29.8,23.5,29.52,South,184,0.0,0.0,77,0.01,,,0.10,VWS V13.01,2013-03-25 09:25:00,
2013-03-25 05:30:00,29.8,23.5,29.52,South,184,0.0,0.0,77,0.02,,,0.11,VWS V13.01,2013-03-25 09:30:00,
2013-03-25 05:35:00,29.8,23.5,29.52,South,184,0.0,0.0,77,0.02,,,0.11,VWS V13.01,2013-03-25 09:35:00,
2013-03-25 05:40:00,29.8,23.8,29.52,South,183,0.0,0.0,78,0.02,,,0.11,VWS V13.01,2013-03-25 09:40:00,
2013-03-25 05:45:00,29.8,23.8,29.52,South,183,0.0,0.0,78,0.01,,,0.11,VWS V13.01,2013-03-25 09:45:00,
2013-03-25 05:50:00,29.8,23.8,29.52,South,183,0.0,0.0,78,0.01,,,0.11,VWS V13.01,2013-03-25 09:50:00,
2013-03-25 05:55:00,29.8,23.8,29.52,South,184,0.0,0.0,78,0.01,,,0.11,VWS V13.01,2013-03-25 09:55:00,
2013-03-25 06:00:00,29.8,23.8,29.52,South,184,0.0,0.0,78,0.01,,,0.11,VWS V13.01,2013-03-25 10:00:00,
2013-03-25 06:05:00,29.8,23.8,29.52,South,184,0.0,0.0,78,0.01,,,0.11,VWS V13.01,2013-03-25 10:05:00,
2013-03-25 06:10:00,29.8,23.8,29.52,South,183,0.0,0.0,78,0.01,,,0.11,VWS V13.01,2013-03-25 10:10:00,
2013-03-25 06:15:00,29.8,23.8,29.52,South,184,0.0,0.0,78,0.01,,,0.11,VWS V13.01,2013-03-25 10:15:00,
2013-03-25 06:20:00,29.8,23.8,29.52,South,184,0.0,0.0,78,0.02,,,0.12,VWS V13.01,2013-03-25 10:20:00,
2013-03-25 06:25:00,29.7,23.6,29.52,South,183,0.0,0.0,78,0.02,,,0.12,VWS V13.01,2013-03-25 10:25:00,
2013-03-25 06:30:00,29.7,23.6,29.52,South,183,0.0,0.0,78,0.01,,,0.12,VWS V13.01,2013-03-25 10:30:00,
2013-03-25 06:35:00,29.5,23.5,29.52,South,184,0.0,0.0,78,0.01,,,0.12,VWS V13.01,2013-03-25 10:35:00,
2013-03-25 06:40:00,29.5,23.5,29.52,South,184,0.0,0.0,78,0.01,,,0.12,VWS V13.01,2013-03-25 10:40:00,
2013-03-25 06:45:00,29.5,23.5,29.52,South,184,0.0,0.0,78,0.01,,,0.12,VWS V13.01,2013-03-25 10:45:00,
2013-03-25 06:50:00,29.3,23.3,29.52,South,183,0.0,0.0,78,0.01,,,0.12,VWS V13.01,2013-03-25 10:50:00,
2013-03-25 06:55:00,29.3,23.3,29.49,South,184,0.0,0.0,78,0.01,,,0.12,VWS V13.01,2013-03-25 10:55:00,
2013-03-25 07:00:00,29.1,22.8,29.49,South,184,0.0,0.0,77,0.01,,,0.12,VWS V13.01,2013-03-25 11:00:00,
2013-03-25 07:05:00,28.8,22.5,29.49,South,184,0.0,0.0,77,0.01,,,0.12,VWS V13.01,2013-03-25 11:05:00,
2013-03-25 07:10:00,28.4,22.1,29.49,South,184,0.0,0.0,77,0.01,,,0.12,VWS V13.01,2013-03-25 11:10:00,
2013-03-25 07:15:00,28.0,21.8,29.49,South,183,0.0,0.0,77,0.01,,,0.12,VWS V13.01,2013-03-25 11:15:00,
2013-03-25 07:20:00,27.7,21.4,29.49,South,183,0.0,0.0,77,0.01,,,0.12,VWS V13.01,2013-03-25 11:20:00,
2013-03-25 07:25:00,27.5,21.2,29.49,South,183,0.0,0.0,77,0.00,,,0.12,VWS V13.01,2013-03-25 11:25:00,
2013-03-25 07:30:00,27.5,21.2,29.49,South,183,0.0,0.0,77,0.00,,,0.12,VWS V13.01,2013-03-25 11:30:00,
2013-03-25 07:35:00,27.3,21.1,29.49,South,183,0.0,0.0,77,0.00,,,0.12,VWS V13.01,2013-03-25 11:35:00,
2013-03-25 07:40:00,27.5,21.2,29.49,South,184,0.0,0.0,77,0.00,,,0.12,VWS V13.01,2013-03-25 11:40:00,
2013-03-25 07:45:00,27.7,21.4,29.49,South,183,0.0,0.0,77,0.00,,,0.12,VWS V13.01,2013-03-25 11:45:00,
2013-03-25 07:50:00,27.9,21.9,29.49,South,183,0.0,0.0,78,0.00,,,0.12,VWS V13.01,2013-03-25 11:50:00,
2013-03-25 07:55:00,28.0,22.1,29.49,SE,144,0.0,0.0,78,0.00,,,0.12,VWS V13.01,2013-03-25 11:55:00,
2013-03-25 08:00:00,28.4,22.4,29.49,NW,313,0.0,0.0,78,0.02,,,0.14,VWS V13.01,2013-03-25 12:00:00,
2013-03-25 08:05:00,28.8,22.8,29.49,NW,313,0.0,0.0,78,0.02,,,0.14,VWS V13.01,2013-03-25 12:05:00,
2013-03-25 08:10:00,29.5,23.5,29.49,NW,313,0.0,0.0,78,0.02,,,0.14,VWS V13.01,2013-03-25 12:10:00,
2013-03-25 08:15:00,30.2,24.2,29.49,NW,313,0.0,0.0,78,0.02,,,0.14,VWS V13.01,2013-03-25 12:15:00,
2013-03-25 08:20:00,30.7,24.4,29.49,NW,313,0.0,0.0,77,0.02,,,0.14,VWS V13.01,2013-03-25 12:20:00,
2013-03-25 08:25:00,31.3,24.9,29.49,NW,313,0.0,0.0,77,0.02,,,0.14,VWS V13.01,2013-03-25 12:25:00,
2013-03-25 08:30:00,32.0,25.6,29.49,NW,313,0.0,0.0,77,0.02,,,0.14,VWS V13.01,2013-03-25 12:30:00,
2013-03-25 08:35:00,32.5,26.1,29.49,NW,313,0.0,0.0,77,0.02,,,0.14,VWS V13.01,2013-03-25 12:35:00,
2013-03-25 08:40:00,32.7,26.0,29.49,NW,313,0.0,0.0,76,0.03,,,0.15,VWS V13.01,2013-03-25 12:40:00,
2013-03-25 08:45:00,32.9,26.2,29.49,NW,313,0.0,0.0,76,0.03,,,0.15,VWS V13.01,2013-03-25 12:45:00,
2013-03-25 08:50:00,33.3,26.5,29.49,NW,313,0.0,0.0,76,0.03,,,0.15,VWS V13.01,2013-03-25 12:50:00,
2013-03-25 08:55:00,33.3,26.5,29.49,NW,313,0.0,0.0,76,0.03,,,0.15,VWS V13.01,2013-03-25 12:55:00,
2013-03-25 09:00:00,33.6,26.9,29.49,NW,313,0.0,0.0,76,0.01,,,0.15,VWS V13.01,2013-03-25 13:00:00,
2013-03-25 09:05:00,34.0,26.9,29.49,NW,313,0.0,0.0,75,0.01,,,0.17,VWS V13.01,2013-03-25 13:05:00,
2013-03-25 09:10:00,33.8,26.7,29.49,SSE,153,0.0,0.0,75,0.02,,,0.17,VWS V13.01,2013-03-25 13:10:00,
2013-03-25 09:15:00,33.6,26.6,29.49,SSE,154,0.0,0.0,75,0.03,,OVC007,0.18,VWS V13.01,2013-03-25 13:15:00,
2013-03-25 09:20:00,33.6,26.2,29.49,SE,136,3.9,3.9,74,0.04,,OVC007,0.19,VWS V13.01,2013-03-25 13:20:00,
2013-03-25 09:25:00,33.6,26.2,29.49,SE,139,0.0,0.0,74,0.04,,OVC007,0.19,VWS V13.01,2013-03-25 13:25:00,
2013-03-25 09:30:00,34.0,26.2,29.49,SE,141,0.0,0.0,73,0.06,,OVC007,0.20,VWS V13.01,2013-03-25 13:30:00,
2013-03-25 09:35:00,34.0,25.9,29.49,SE,134,3.4,3.4,72,0.06,,,0.21,VWS V13.01,2013-03-25 13:35:00,
2013-03-25 09:40:00,34.0,25.6,29.49,SE,136,0.0,3.4,71,0.06,,,0.21,VWS V13.01,2013-03-25 13:40:00,
2013-03-25 09:45:00,34.0,25.2,29.49,SE,143,0.0,0.0,70,0.06,,,0.21,VWS V13.01,2013-03-25 13:45:00,
2013-03-25 09:50:00,34.0,25.2,29.49,SSE,147,0.0,0.0,70,0.06,,,0.22,VWS V13.01,2013-03-25 13:50:00,
2013-03-25 09:55:00,34.0,24.9,29.49,SSE,147,0.0,0.0,69,0.07,,,0.22,VWS V13.01,2013-03-25 13:55:00,
2013-03-25 10:00:00,33.8,24.4,29.49,SSW,208,0.0,0.0,68,0.07,,,0.22,VWS V13.01,2013-03-25 14:00:00,
2013-03-25 10:05:00,33.6,24.5,29.49,SSE,167,0.0,0.0,69,0.07,,,0.22,VWS V13.01,2013-03-25 14:05:00,
2013-03-25 10:10:00,33.6,24.2,29.49,SE,129,0.0,0.0,68,0.06,,,0.22,VWS V13.01,2013-03-25 14:10:00,
2013-03-25 10:15:00,33.8,24.4,29.49,SSE,150,0.0,0.0,68,0.07,,,0.23,VWS V13.01,2013-03-25 14:15:00,
2013-03-25 10:21:00,33.8,24.4,29.49,SE,134,0.0,3.4,68,0.06,,,0.23,VWS V13.01,2013-03-25 14:21:00,
2013-03-25 10:26:00,33.8,24.4,29.49,SE,131,0.0,0.0,68,0.04,,,0.23,VWS V13.01,2013-03-25 14:26:00,
2013-03-25 10:31:00,33.6,23.1,29.49,SSE,156,3.9,4.5,65,0.03,,,0.23,VWS V13.01,2013-03-25 14:31:00,
2013-03-25 10:36:00,33.6,23.1,29.49,SSE,157,2.8,3.9,65,0.04,,,0.24,VWS V13.01,2013-03-25 14:36:00,
2013-03-25 10:41:00,33.8,22.9,29.49,SE,142,3.9,5.0,64,0.03,,,0.24,VWS V13.01,2013-03-25 14:41:00,
2013-03-25 10:46:00,33.8,22.5,29.49,SE,133,3.4,5.0,63,0.03,,,0.24,VWS V13.01,2013-03-25 14:46:00,
2013-03-25 10:51:00,34.0,22.4,29.49,SSE,152,3.4,4.5,62,0.03,,,0.24,VWS V13.01,2013-03-25 14:51:00,
2013-03-25 10:56:00,34.5,23.2,29.49,SSE,163,3.4,3.4,63,0.02,,,0.24,VWS V13.01,2013-03-25 14:56:00,
2013-03-25 11:01:00,35.1,23.8,29.49,ESE,116,2.8,4.5,63,0.02,,,0.24,VWS V13.01,2013-03-25 15:01:00,
2013-03-25 11:06:00,35.6,23.5,29.49,SSE,167,5.0,5.0,61,0.02,,,0.24,VWS V13.01,2013-03-25 15:06:00,
2013-03-25 11:11:00,35.8,22.9,29.49,SE,144,2.8,6.2,59,0.02,,,0.25,VWS V13.01,2013-03-25 15:11:00,
2013-03-25 11:16:00,36.0,23.0,29.49,SSE,164,2.8,4.5,59,0.02,,,0.25,VWS V13.01,2013-03-25 15:16:00,
2013-03-25 11:21:00,36.5,23.5,29.49,ESE,118,0.0,0.0,59,0.02,,,0.25,VWS V13.01,2013-03-25 15:21:00,
2013-03-25 11:26:00,36.9,23.5,29.49,SSE,159,3.4,5.0,58,0.02,,,0.25,VWS V13.01,2013-03-25 15:26:00,
2013-03-25 11:31:00,36.9,22.2,29.49,SE,146,3.9,5.0,55,0.02,,,0.25,VWS V13.01,2013-03-25 15:31:00,
2013-03-25 11:36:00,36.7,21.6,29.49,South,176,4.5,4.5,54,0.01,,,0.25,VWS V13.01,2013-03-25 15:36:00,
2013-03-25 11:41:00,36.7,22.0,29.52,SSE,150,0.0,4.5,55,0.01,,,0.25,VWS V13.01,2013-03-25 15:41:00,
2013-03-25 11:46:00,37.0,22.4,29.52,SSE,164,3.9,4.5,55,0.01,,,0.25,VWS V13.01,2013-03-25 15:46:00,
2013-03-25 11:51:00,37.0,22.8,29.52,SE,133,3.4,3.9,56,0.01,,,0.25,VWS V13.01,2013-03-25 15:51:00,
2013-03-25 11:56:00,37.2,23.4,29.52,ESE,113,2.8,4.5,57,0.01,,,0.25,VWS V13.01,2013-03-25 15:56:00,
2013-03-25 12:01:00,37.6,23.7,29.52,SE,130,4.5,6.7,57,0.01,,,0.25,VWS V13.01,2013-03-25 16:01:00,
2013-03-25 12:06:00,37.9,23.2,29.52,East,87,3.4,3.4,55,0.01,,,0.25,VWS V13.01,2013-03-25 16:06:00,
2013-03-25 12:11:00,37.9,22.4,29.52,SSE,152,0.0,3.9,53,0.01,,,0.25,VWS V13.01,2013-03-25 16:11:00,
2013-03-25 12:16:00,38.1,23.4,29.52,ESE,121,0.0,3.4,55,0.00,,,0.25,VWS V13.01,2013-03-25 16:16:00,
2013-03-25 12:21:00,38.7,24.8,29.52,ESE,114,0.0,0.0,57,0.00,,,0.25,VWS V13.01,2013-03-25 16:21:00,
2013-03-25 12:26:00,39.0,23.8,29.52,SE,124,0.0,3.9,54,0.00,,,0.25,VWS V13.01,2013-03-25 16:26:00,
2013-03-25 12:31:00,39.0,22.4,29.52,SSE,156,3.4,5.0,51,0.00,,,0.25,VWS V13.01,2013-03-25 16:31:00,
2013-03-25 12:36:00,38.7,22.1,29.52,SSE,149,0.0,0.0,51,0.00,,,0.25,VWS V13.01,2013-03-25 16:36:00,
2013-03-25 12:41:00,38.8,22.7,29.52,SE,137,0.0,0.0,52,0.00,,,0.25,VWS V13.01,2013-03-25 16:41:00,
2013-03-25 12:46:00,39.4,22.8,29.52,SSE,157,0.0,0.0,51,0.01,,,0.26,VWS V13.01,2013-03-25 16:46:00,
2013-03-25 12:51:00,39.2,22.6,29.49,SSW,203,0.0,0.0,51,0.01,,,0.26,VWS V13.01,2013-03-25 16:51:00,
2013-03-25 12:56:00,39.0,22.4,29.49,SE,138,3.4,3.9,51,0.01,,,0.26,VWS V13.01,2013-03-25 16:56:00,
2013-03-25 13:02:00,39.2,22.6,29.49,SE,143,3.4,3.9,51,0.01,,,0.26,VWS V13.01,2013-03-25 17:02:00,
2013-03-25 13:07:00,39.2,22.6,29.52,South,177,0.0,3.4,51,0.01,,,0.26,VWS V13.01,2013-03-25 17:07:00,
2013-03-25 13:12:00,39.0,22.4,29.52,South,172,3.9,3.9,51,0.01,,,0.26,VWS V13.01,2013-03-25 17:12:00,
2013-03-25 13:17:00,38.5,21.9,29.52,SE,144,3.4,3.9,51,0.01,,,0.26,VWS V13.01,2013-03-25 17:17:00,
2013-03-25 13:22:00,38.5,21.9,29.52,SE,143,0.0,6.2,51,0.01,,,0.26,VWS V13.01,2013-03-25 17:22:00,
2013-03-25 13:27:00,38.7,22.6,29.52,SE,124,0.0,0.0,52,0.01,,,0.26,VWS V13.01,2013-03-25 17:27:00,
2013-03-25 13:32:00,38.7,22.6,29.52,North,357,3.9,3.9,52,0.01,,,0.26,VWS V13.01,2013-03-25 17:32:00,
2013-03-25 13:37:00,38.5,22.9,29.52,North,357,3.4,3.4,53,0.01,,,0.26,VWS V13.01,2013-03-25 17:37:00,
2013-03-25 13:42:00,37.9,22.8,29.52,North,7,0.0,3.4,54,0.01,,,0.26,VWS V13.01,2013-03-25 17:42:00,
2013-03-25 13:47:00,38.7,24.8,29.52,North,7,0.0,0.0,57,0.00,,,0.26,VWS V13.01,2013-03-25 17:47:00,
2013-03-25 13:52:00,39.0,24.7,29.52,North,7,0.0,0.0,56,0.00,,,0.26,VWS V13.01,2013-03-25 17:52:00,
2013-03-25 13:57:00,39.2,24.8,29.52,North,7,0.0,0.0,56,0.00,,,0.26,VWS V13.01,2013-03-25 17:57:00,
2013-03-25 14:02:00,38.8,24.5,29.52,North,7,0.0,0.0,56,0.00,,,0.26,VWS V13.01,2013-03-25 18:02:00,
2013-03-25 14:07:00,38.7,24.3,29.52,North,7,0.0,0.0,56,0.00,,,0.26,VWS V13.01,2013-03-25 18:07:00,
2013-03-25 14:12:00,38.7,24.8,29.52,North,7,0.0,0.0,57,0.00,,,0.26,VWS V13.01,2013-03-25 18:12:00,
2013-03-25 14:18:00,38.5,24.6,29.52,North,7,0.0,0.0,57,0.00,,,0.26,VWS V13.01,2013-03-25 18:18:00,
2013-03-25 14:22:00,38.3,24.4,29.49,North,7,0.0,0.0,57,0.00,,,0.26,VWS V13.01,2013-03-25 18:22:00,
2013-03-25 14:28:00,39.0,25.1,29.49,ESE,106,0.0,0.0,57,0.00,,,0.26,VWS V13.01,2013-03-25 18:28:00,
2013-03-25 14:33:00,39.4,25.4,29.49,East,81,0.0,0.0,57,0.00,,,0.26,VWS V13.01,2013-03-25 18:33:00,
2013-03-25 14:38:00,39.2,25.3,29.49,ENE,75,0.0,0.0,57,0.00,,OVC017,0.26,VWS V13.01,2013-03-25 18:38:00,
2013-03-25 14:43:00,38.8,24.9,29.49,ENE,75,0.0,0.0,57,0.00,,OVC017,0.26,VWS V13.01,2013-03-25 18:43:00,
2013-03-25 14:48:00,39.4,25.4,29.49,ENE,75,0.0,0.0,57,0.00,,OVC017,0.26,VWS V13.01,2013-03-25 18:48:00,
2013-03-25 14:53:00,39.9,25.9,29.52,ESE,115,0.0,2.8,57,0.00,,OVC017,0.26,VWS V13.01,2013-03-25 18:53:00,
2013-03-25 14:58:00,40.3,26.3,29.52,ESE,121,0.0,4.5,57,0.00,,,0.26,VWS V13.01,2013-03-25 18:58:00,
2013-03-25 15:03:00,40.5,26.4,29.52,SSE,147,0.0,0.0,57,0.00,,,0.26,VWS V13.01,2013-03-25 19:03:00,
2013-03-25 15:08:00,40.5,26.0,29.52,WSW,248,0.0,0.0,56,0.00,,,0.26,VWS V13.01,2013-03-25 19:08:00,
2013-03-25 15:13:00,39.9,24.2,29.52,WNW,289,0.0,3.9,53,0.00,,,0.26,VWS V13.01,2013-03-25 19:13:00,
2013-03-25 15:18:00,39.9,24.6,29.52,WNW,289,0.0,0.0,54,0.00,,-RA,0.26,VWS V13.01,2013-03-25 19:18:00,
2013-03-25 15:23:00,40.1,24.8,29.52,SW,229,0.0,0.0,54,0.00,,-RA,0.26,VWS V13.01,2013-03-25 19:23:00,
2013-03-25 15:28:00,40.3,24.1,29.52,SW,234,0.0,0.0,52,0.00,,-RA,0.26,VWS V13.01,2013-03-25 19:28:00,
2013-03-25 15:33:00,39.9,23.7,29.52,WSW,252,3.4,3.4,52,0.00,,-RA,0.26,VWS V13.01,2013-03-25 19:33:00,
2013-03-25 15:38:00,39.9,23.7,29.52,West,262,2.8,3.9,52,0.00,,OVC024,0.26,VWS V13.01,2013-03-25 19:38:00,
2013-03-25 15:43:00,40.1,23.4,29.52,West,264,3.4,3.4,51,0.00,,OVC024,0.26,VWS V13.01,2013-03-25 19:43:00,
2013-03-25 15:48:00,40.1,23.4,29.52,WSW,252,3.9,3.9,51,0.00,,OVC024,0.26,VWS V13.01,2013-03-25 19:48:00,
2013-03-25 15:53:00,39.9,23.3,29.52,SW,236,0.0,3.9,51,0.00,,OVC024,0.26,VWS V13.01,2013-03-25 19:53:00,
2013-03-25 15:58:00,39.9,23.3,29.52,West,260,3.9,5.0,51,0.00,,-RA,0.26,VWS V13.01,2013-03-25 19:58:00,
2013-03-25 16:03:00,39.6,22.9,29.52,West,262,5.0,7.3,51,0.00,,-RA,0.26,VWS V13.01,2013-03-25 20:03:00,
2013-03-25 16:08:00,38.8,22.7,29.52,WSW,254,3.9,9.5,52,0.00,,-RA,0.26,VWS V13.01,2013-03-25 20:08:00,
2013-03-25 16:13:00,38.3,22.7,29.52,WSW,251,7.8,7.8,53,0.00,,-RA,0.26,VWS V13.01,2013-03-25 20:13:00,
2013-03-25 16:18:00,37.6,22.5,29.52,SW,216,0.0,5.0,54,0.00,,,0.26,VWS V13.01,2013-03-25 20:18:00,
2013-03-25 16:23:00,37.6,23.3,29.52,SSW,204,0.0,0.0,56,0.00,,,0.26,VWS V13.01,2013-03-25 20:23:00,
2013-03-25 16:28:00,38.1,24.2,29.52,SSW,204,0.0,0.0,57,0.00,,,0.26,VWS V13.01,2013-03-25 20:28:00,
2013-03-25 16:33:00,38.7,24.8,29.52,SSW,204,0.0,0.0,57,0.00,,,0.26,VWS V13.01,2013-03-25 20:33:00,
2013-03-25 16:38:00,39.0,25.1,29.52,SSW,204,0.0,0.0,57,0.00,,OVC070,0.26,VWS V13.01,2013-03-25 20:38:00,
2013-03-25 16:43:00,39.9,25.9,29.52,SSW,204,0.0,0.0,57,0.00,,OVC070,0.26,VWS V13.01,2013-03-25 20:43:00,
2013-03-25 16:48:00,40.6,26.6,29.52,SSW,204,0.0,0.0,57,0.00,,OVC070,0.26,VWS V13.01,2013-03-25 20:48:00,
2013-03-25 16:53:00,40.6,26.6,29.52,SSE,154,0.0,0.0,57,0.00,,OVC070,0.26,VWS V13.01,2013-03-25 20:53:00,
2013-03-25 16:58:00,40.3,25.0,29.52,SSE,150,0.0,0.0,54,0.00,,OVC070,0.26,VWS V13.01,2013-03-25 20:58:00,
2013-03-25 17:03:00,39.9,24.2,29.52,SSE,159,0.0,0.0,53,0.00,,OVC070,0.26,VWS V13.01,2013-03-25 21:03:00,
2013-03-25 17:08:00,39.9,24.6,29.52,ESE,119,0.0,0.0,54,0.00,,OVC070,0.26,VWS V13.01,2013-03-25 21:08:00,
2013-03-25 17:13:00,39.7,24.9,29.52,East,100,0.0,0.0,55,0.00,,OVC070,0.26,VWS V13.01,2013-03-25 21:13:00,
2013-03-25 17:18:00,39.9,25.1,29.52,ESE,115,3.9,3.9,55,0.00,,OVC070,0.26,VWS V13.01,2013-03-25 21:18:00,
2013-03-25 17:23:00,39.6,24.3,29.54,ESE,106,3.4,3.4,54,0.00,,OVC070,0.26,VWS V13.01,2013-03-25 21:23:00,
2013-03-25 17:28:00,39.6,24.3,29.54,South,189,0.0,0.0,54,0.00,,OVC070,0.26,VWS V13.01,2013-03-25 21:28:00,
2013-03-25 17:33:00,39.2,24.0,29.54,South,170,0.0,5.0,54,0.00,,OVC070,0.26,VWS V13.01,2013-03-25 21:33:00,
2013-03-25 17:38:00,39.0,24.2,29.54,ESE,115,0.0,3.9,55,0.00,,OVC050,0.26,VWS V13.01,2013-03-25 21:38:00,
2013-03-25 17:43:00,39.2,24.8,29.54,ESE,116,0.0,0.0,56,0.00,,OVC050,0.26,VWS V13.01,2013-03-25 21:43:00,
2013-03-25 17:48:00,39.2,24.8,29.54,SE,124,0.0,0.0,56,0.00,,OVC050,0.26,VWS V13.01,2013-03-25 21:48:00,
2013-03-25 17:53:00,39.2,24.4,29.54,SSE,165,0.0,0.0,55,0.00,,OVC050,0.26,VWS V13.01,2013-03-25 21:53:00,
2013-03-25 17:58:00,39.0,24.7,29.54,SSE,161,0.0,0.0,56,0.00,,OVC048,0.26,VWS V13.01,2013-03-25 21:58:00,
2013-03-25 18:03:00,38.7,24.3,29.54,SSE,161,0.0,0.0,56,0.00,,OVC048,0.26,VWS V13.01,2013-03-25 22:03:00,
2013-03-25 18:08:00,38.8,24.9,29.54,SSE,161,0.0,0.0,57,0.00,,OVC048,0.26,VWS V13.01,2013-03-25 22:08:00,
2013-03-25 18:13:00,38.7,24.3,29.54,ESE,110,0.0,0.0,56,0.00,,OVC048,0.26,VWS V13.01,2013-03-25 22:13:00,
2013-03-25 18:18:00,38.7,24.3,29.54,ESE,110,0.0,0.0,56,0.00,,-RA,0.26,VWS V13.01,2013-03-25 22:18:00,
2013-03-25 18:23:00,38.3,24.0,29.57,ESE,110,0.0,0.0,56,0.00,,-RA,0.26,VWS V13.01,2013-03-25 22:23:00,
2013-03-25 18:28:00,37.8,23.1,29.57,ENE,60,0.0,0.0,55,0.00,,-RA,0.26,VWS V13.01,2013-03-25 22:28:00,
2013-03-25 18:33:00,37.4,22.7,29.57,NE,38,3.4,3.9,55,0.00,,-RA,0.26,VWS V13.01,2013-03-25 22:33:00,
2013-03-25 18:38:00,37.2,23.0,29.57,NNE,31,3.9,3.9,56,0.00,,OVC070,0.26,VWS V13.01,2013-03-25 22:38:00,
2013-03-25 18:43:00,37.0,22.8,29.57,East,83,0.0,2.8,56,0.00,,OVC070,0.26,VWS V13.01,2013-03-25 22:43:00,
2013-03-25 18:48:00,37.2,23.4,29.57,East,79,0.0,0.0,57,0.00,,OVC070,0.26,VWS V13.01,2013-03-25 22:48:00,
2013-03-25 18:53:00,37.2,23.4,29.57,East,79,0.0,0.0,57,0.00,,OVC070,0.26,VWS V13.01,2013-03-25 22:53:00,
2013-03-25 18:58:00,37.0,23.2,29.57,ENE,68,0.0,0.0,57,0.00,,OVC060,0.26,VWS V13.01,2013-03-25 22:58:00,
2013-03-25 19:03:00,36.9,23.1,29.57,ENE,66,0.0,0.0,57,0.00,,OVC060,0.26,VWS V13.01,2013-03-25 23:03:00,
2013-03-25 19:08:00,36.7,22.9,29.57,ENE,66,0.0,0.0,57,0.00,,OVC060,0.26,VWS V13.01,2013-03-25 23:08:00,
2013-03-25 19:13:00,36.3,22.6,29.57,ENE,66,0.0,0.0,57,0.00,,OVC060,0.26,VWS V13.01,2013-03-25 23:13:00,
2013-03-25 19:18:00,36.1,22.4,29.57,SW,221,3.4,3.4,57,0.00,,OVC075,0.26,VWS V13.01,2013-03-25 23:18:00,
2013-03-25 19:23:00,35.8,22.0,29.60,SW,233,3.4,3.9,57,0.00,,OVC075,0.26,VWS V13.01,2013-03-25 23:23:00,
2013-03-25 19:28:00,35.8,22.9,29.60,SW,235,2.8,3.9,59,0.00,,OVC075,0.26,VWS V13.01,2013-03-25 23:28:00,
2013-03-25 19:33:00,35.6,22.7,29.60,WSW,252,5.0,7.3,59,0.00,,OVC075,0.26,VWS V13.01,2013-03-25 23:33:00,
2013-03-25 19:38:00,35.4,22.5,29.60,WSW,258,6.2,6.2,59,0.00,,OVC075,0.26,VWS V13.01,2013-03-25 23:38:00,
2013-03-25 19:43:00,35.6,21.5,29.60,West,272,0.0,7.3,56,0.00,,OVC075,0.26,VWS V13.01,2013-03-25 23:43:00,
2013-03-25 19:48:00,35.8,19.4,29.60,West,264,3.4,5.6,51,0.00,,OVC075,0.26,VWS V13.01,2013-03-25 23:48:00,
2013-03-25 19:53:00,36.0,18.7,29.60,WSW,239,3.4,6.2,49,0.00,,OVC075,0.26,VWS V13.01,2013-03-25 23:53:00,
2013-03-25 19:58:00,36.0,18.7,29.60,West,279,5.0,6.7,49,0.00,,OVC070,0.26,VWS V13.01,2013-03-25 23:58:00,
2013-03-25 20:03:00,36.1,18.4,29.60,WNW,294,6.7,7.8,48,0.00,,OVC070,0.26,VWS V13.01,2013-03-26 00:03:00,
2013-03-25 20:08:00,36.1,18.4,29.60,West,269,5.0,5.0,48,0.00,,OVC070,0.26,VWS V13.01,2013-03-26 00:08:00,
2013-03-25 20:13:00,36.1,18.4,29.60,WNW,293,4.5,6.2,48,0.00,,OVC070,0.26,VWS V13.01,2013-03-26 00:13:00,
2013-03-25 20:18:00,36.1,18.4,29.60,West,273,3.9,5.0,48,0.00,,OVC060,0.26,VWS V13.01,2013-03-26 00:18:00,
2013-03-25 20:23:00,36.1,18.4,29.63,West,264,5.0,6.2,48,0.00,,OVC060,0.26,VWS V13.01,2013-03-26 00:23:00,
2013-03-25 20:28:00,36.1,18.4,29.63,West,273,4.5,5.0,48,0.00,,OVC060,0.26,VWS V13.01,2013-03-26 00:28:00,
2013-03-25 20:33:00,36.1,18.4,29.63,WNW,290,5.0,5.0,48,0.00,,OVC060,0.26,VWS V13.01,2013-03-26 00:33:00,
2013-03-25 20:38:00,36.1,17.9,29.63,WNW,288,6.2,6.2,47,0.00,,OVC050,0.26,VWS V13.01,2013-03-26 00:38:00,
2013-03-25 20:43:00,36.0,17.7,29.63,West,277,3.9,5.0,47,0.00,,OVC050,0.26,VWS V13.01,2013-03-26 00:43:00,
2013-03-25 20:48:00,36.0,17.7,29.63,West,263,5.6,5.6,47,0.00,,OVC050,0.26,VWS V13.01,2013-03-26 00:48:00,
2013-03-25 20:53:00,36.0,17.7,29.63,West,265,5.0,7.8,47,0.00,,OVC050,0.26,VWS V13.01,2013-03-26 00:53:00,
2013-03-25 20:58:00,36.1,17.9,29.63,West,270,7.8,7.8,47,0.00,,OVC050,0.26,VWS V13.01,2013-03-26 00:58:00,
2013-03-25 21:03:00,36.1,17.9,29.63,West,276,5.6,6.7,47,0.00,,OVC050,0.26,VWS V13.01,2013-03-26 01:03:00,
2013-03-25 21:08:00,36.1,17.9,29.63,West,267,3.4,5.0,47,0.00,,OVC050,0.26,VWS V13.01,2013-03-26 01:08:00,
2013-03-25 21:13:00,36.1,16.9,29.63,West,262,5.0,5.6,45,0.00,,OVC050,0.26,VWS V13.01,2013-03-26 01:13:00,
2013-03-25 21:18:00,35.8,17.5,29.63,WNW,294,3.4,7.3,47,0.00,,OVC048,0.26,VWS V13.01,2013-03-26 01:18:00,
2013-03-25 21:23:00,35.6,16.4,29.63,West,265,6.7,6.7,45,0.00,,OVC048,0.26,VWS V13.01,2013-03-26 01:23:00,
2013-03-25 21:28:00,35.4,16.2,29.63,West,265,5.0,7.3,45,0.00,,OVC048,0.26,VWS V13.01,2013-03-26 01:28:00,
2013-03-25 21:33:00,35.4,16.2,29.63,West,271,5.0,7.3,45,0.00,,OVC048,0.26,VWS V13.01,2013-03-26 01:33:00,
2013-03-25 21:38:00,35.4,16.2,29.66,West,271,6.7,10.3,45,0.00,,OVC048,0.26,VWS V13.01,2013-03-26 01:38:00,
2013-03-25 21:43:00,35.4,16.2,29.66,West,277,7.3,7.3,45,0.00,,OVC048,0.26,VWS V13.01,2013-03-26 01:43:00,
2013-03-25 21:48:00,35.2,16.0,29.66,West,274,4.5,6.7,45,0.00,,OVC048,0.26,VWS V13.01,2013-03-26 01:48:00,
2013-03-25 21:53:00,35.1,15.9,29.66,West,259,4.5,5.0,45,0.00,,OVC048,0.26,VWS V13.01,2013-03-26 01:53:00,
2013-03-25 21:58:00,35.1,15.9,29.66,West,264,4.5,6.2,45,0.00,,OVC046,0.26,VWS V13.01,2013-03-26 01:58:00,
2013-03-25 22:03:00,35.1,15.9,29.66,West,272,3.4,3.4,45,0.00,,OVC046,0.26,VWS V13.01,2013-03-26 02:03:00,
2013-03-25 22:08:00,34.9,15.7,29.66,West,277,3.9,3.9,45,0.00,,OVC046,0.26,VWS V13.01,2013-03-26 02:08:00,
2013-03-25 22:13:00,34.9,15.7,29.66,West,267,2.8,3.4,45,0.00,,OVC046,0.26,VWS V13.01,2013-03-26 02:13:00,
2013-03-25 22:18:00,34.7,15.6,29.66,West,261,0.0,3.9,45,0.00,,OVC046,0.26,VWS V13.01,2013-03-26 02:18:00,
2013-03-25 22:23:00,34.5,15.4,29.66,West,263,0.0,3.9,45,0.00,,OVC046,0.26,VWS V13.01,2013-03-26 02:23:00,
2013-03-25 22:28:00,34.3,15.2,29.66,WSW,258,0.0,3.4,45,0.00,,OVC046,0.26,VWS V13.01,2013-03-26 02:28:00,
2013-03-25 22:33:00,34.2,15.1,29.66,WSW,258,0.0,4.5,45,0.00,,OVC046,0.26,VWS V13.01,2013-03-26 02:33:00,
2013-03-25 22:38:00,34.0,14.9,29.66,WSW,258,0.0,0.0,45,0.00,,OVC046,0.26,VWS V13.01,2013-03-26 02:38:00,
2013-03-25 22:43:00,33.8,16.2,29.66,WSW,258,0.0,0.0,48,0.00,,OVC046,0.26,VWS V13.01,2013-03-26 02:43:00,
2013-03-25 22:48:00,33.8,16.2,29.66,West,265,2.8,4.5,48,0.00,,OVC046,0.26,VWS V13.01,2013-03-26 02:48:00,
2013-03-25 22:53:00,33.6,16.0,29.66,West,266,0.0,0.0,48,0.00,,OVC046,0.26,VWS V13.01,2013-03-26 02:53:00,
2013-03-25 22:58:00,33.6,16.0,29.66,West,268,0.0,3.9,48,0.00,,OVC046,0.26,VWS V13.01,2013-03-26 02:58:00,
2013-03-25 23:03:00,33.6,16.0,29.66,West,272,0.0,0.0,48,0.00,,OVC044,0.26,VWS V13.01,2013-03-26 03:03:00,
2013-03-25 23:08:00,33.6,16.0,29.66,WNW,284,0.0,0.0,48,0.00,,OVC044,0.26,VWS V13.01,2013-03-26 03:08:00,
2013-03-25 23:13:00,33.6,16.0,29.66,West,272,3.4,4.5,48,0.00,,OVC044,0.26,VWS V13.01,2013-03-26 03:13:00,
2013-03-25 23:18:00,33.8,16.2,29.66,West,279,3.4,5.0,48,0.00,,OVC090,0.26,VWS V13.01,2013-03-26 03:18:00,
2013-03-25 23:23:00,34.0,16.4,29.69,West,268,6.7,7.3,48,0.00,,OVC090,0.26,VWS V13.01,2013-03-26 03:23:00,
2013-03-25 23:28:00,34.3,16.7,29.69,West,271,3.4,4.5,48,0.00,,OVC090,0.26,VWS V13.01,2013-03-26 03:28:00,
2013-03-25 23:33:00,34.3,16.7,29.69,WSW,251,4.5,5.0,48,0.00,,OVC090,0.26,VWS V13.01,2013-03-26 03:33:00,
2013-03-25 23:38:00,34.5,16.9,29.69,West,269,2.8,5.0,48,0.00,,OVC110,0.26,VWS V13.01,2013-03-26 03:38:00,
2013-03-25 23:43:00,34.5,16.9,29.69,WNW,301,4.5,7.8,48,0.00,,OVC110,0.26,VWS V13.01,2013-03-26 03:43:00,
2013-03-25 23:48:00,34.3,16.7,29.69,NW,319,6.2,7.8,48,0.00,,OVC110,0.26,VWS V13.01,2013-03-26 03:48:00,
2013-03-25 23:53:00,34.3,16.7,29.69,WNW,300,3.4,5.0,48,0.00,,OVC110,0.26,VWS V13.01,2013-03-26 03:53:00,
2013-03-25 23:58:00,34.3,16.7,29.69,WNW,285,3.4,5.0,48,0.00,,OVC100,0.26,VWS V13.01,2013-03-26 03:58:00,